sensor_id;sensor_type;location;lat;lon;timestamp;P1;durP1;ratioP1;P2;durP2;ratioP2
62707;SDS011;48769;51.624;5.886;2024-02-14T00:00:10;9.15;;;5.22;;
62707;SDS011;48769;51.624;5.886;2024-02-14T00:02:39;9.30;;;5.13;;
62707;SDS011;48769;51.624;5.886;2024-02-14T00:05:14;6.28;;;4.25;;
62707;SDS011;48769;51.624;5.886;2024-02-14T00:07:40;6.05;;;4.60;;
62707;SDS011;48769;51.624;5.886;2024-02-14T00:10:05;6.78;;;4.75;;
62707;SDS011;48769;51.624;5.886;2024-02-14T00:12:32;10.43;;;5.40;;
62707;SDS011;48769;51.624;5.886;2024-02-14T00:14:58;8.85;;;5.30;;
62707;SDS011;48769;51.624;5.886;2024-02-14T00:17:23;9.23;;;5.10;;
62707;SDS011;48769;51.624;5.886;2024-02-14T00:19:49;5.80;;;4.88;;
62707;SDS011;48769;51.624;5.886;2024-02-14T00:22:14;7.70;;;5.00;;
62707;SDS011;48769;51.624;5.886;2024-02-14T00:24:39;8.40;;;5.00;;
62707;SDS011;48769;51.624;5.886;2024-02-14T00:27:05;5.70;;;4.72;;
62707;SDS011;48769;51.624;5.886;2024-02-14T00:29:31;10.20;;;4.78;;
62707;SDS011;48769;51.624;5.886;2024-02-14T00:31:59;8.38;;;5.28;;
62707;SDS011;48769;51.624;5.886;2024-02-14T00:34:24;7.65;;;5.30;;
62707;SDS011;48769;51.624;5.886;2024-02-14T00:36:50;7.10;;;5.50;;
62707;SDS011;48769;51.624;5.886;2024-02-14T00:39:15;8.23;;;4.88;;
62707;SDS011;48769;51.624;5.886;2024-02-14T00:41:40;6.10;;;4.88;;
62707;SDS011;48769;51.624;5.886;2024-02-14T00:44:06;8.68;;;5.25;;
62707;SDS011;48769;51.624;5.886;2024-02-14T00:46:31;8.98;;;5.07;;
62707;SDS011;48769;51.624;5.886;2024-02-14T00:48:56;7.68;;;5.10;;
62707;SDS011;48769;51.624;5.886;2024-02-14T00:51:22;7.07;;;4.90;;
62707;SDS011;48769;51.624;5.886;2024-02-14T00:53:47;6.60;;;4.82;;
62707;SDS011;48769;51.624;5.886;2024-02-14T00:56:12;8.73;;;5.32;;
62707;SDS011;48769;51.624;5.886;2024-02-14T00:58:38;9.77;;;5.18;;
62707;SDS011;48769;51.624;5.886;2024-02-14T01:01:04;10.73;;;5.05;;
62707;SDS011;48769;51.624;5.886;2024-02-14T01:03:29;8.38;;;5.15;;
62707;SDS011;48769;51.624;5.886;2024-02-14T01:05:55;8.82;;;5.47;;
62707;SDS011;48769;51.624;5.886;2024-02-14T01:08:20;13.07;;;5.88;;
62707;SDS011;48769;51.624;5.886;2024-02-14T01:10:45;6.30;;;5.07;;
62707;SDS011;48769;51.624;5.886;2024-02-14T01:13:11;6.90;;;5.10;;
62707;SDS011;48769;51.624;5.886;2024-02-14T01:15:37;7.60;;;5.15;;
62707;SDS011;48769;51.624;5.886;2024-02-14T01:18:02;7.82;;;5.05;;
62707;SDS011;48769;51.624;5.886;2024-02-14T01:20:28;7.97;;;5.70;;
62707;SDS011;48769;51.624;5.886;2024-02-14T01:22:53;9.30;;;5.57;;
62707;SDS011;48769;51.624;5.886;2024-02-14T01:25:18;9.38;;;5.32;;
62707;SDS011;48769;51.624;5.886;2024-02-14T01:27:44;10.20;;;6.15;;
62707;SDS011;48769;51.624;5.886;2024-02-14T01:30:09;7.32;;;5.40;;
62707;SDS011;48769;51.624;5.886;2024-02-14T01:32:35;7.82;;;5.63;;
62707;SDS011;48769;51.624;5.886;2024-02-14T01:35:02;7.75;;;5.65;;
62707;SDS011;48769;51.624;5.886;2024-02-14T01:37:28;9.27;;;6.18;;
62707;SDS011;48769;51.624;5.886;2024-02-14T01:39:55;9.43;;;6.00;;
62707;SDS011;48769;51.624;5.886;2024-02-14T01:42:20;13.13;;;6.18;;
62707;SDS011;48769;51.624;5.886;2024-02-14T01:44:45;10.10;;;6.30;;
62707;SDS011;48769;51.624;5.886;2024-02-14T01:47:11;10.77;;;6.43;;
62707;SDS011;48769;51.624;5.886;2024-02-14T01:49:37;8.32;;;6.13;;
62707;SDS011;48769;51.624;5.886;2024-02-14T01:52:03;7.53;;;5.95;;
62707;SDS011;48769;51.624;5.886;2024-02-14T01:54:29;8.07;;;6.03;;
62707;SDS011;48769;51.624;5.886;2024-02-14T01:56:56;9.50;;;6.50;;
62707;SDS011;48769;51.624;5.886;2024-02-14T01:59:23;9.90;;;6.05;;
62707;SDS011;48769;51.624;5.886;2024-02-14T02:01:49;9.45;;;6.65;;
62707;SDS011;48769;51.624;5.886;2024-02-14T02:04:16;8.15;;;6.28;;
62707;SDS011;48769;51.624;5.886;2024-02-14T02:06:43;8.02;;;6.28;;
62707;SDS011;48769;51.624;5.886;2024-02-14T02:09:08;12.05;;;6.82;;
62707;SDS011;48769;51.624;5.886;2024-02-14T02:11:50;8.90;;;6.22;;
62707;SDS011;48769;51.624;5.886;2024-02-14T02:14:16;10.47;;;6.50;;
62707;SDS011;48769;51.624;5.886;2024-02-14T02:16:42;8.63;;;6.18;;
62707;SDS011;48769;51.624;5.886;2024-02-14T02:19:08;10.45;;;6.00;;
62707;SDS011;48769;51.624;5.886;2024-02-14T02:21:36;8.20;;;6.32;;
62707;SDS011;48769;51.624;5.886;2024-02-14T02:24:02;12.77;;;6.35;;
62707;SDS011;48769;51.624;5.886;2024-02-14T02:26:28;9.15;;;6.35;;
62707;SDS011;48769;51.624;5.886;2024-02-14T02:28:53;10.30;;;5.88;;
62707;SDS011;48769;51.624;5.886;2024-02-14T02:31:22;8.32;;;6.53;;
62707;SDS011;48769;51.624;5.886;2024-02-14T02:33:47;13.07;;;7.00;;
62707;SDS011;48769;51.624;5.886;2024-02-14T02:36:13;18.90;;;7.45;;
62707;SDS011;48769;51.624;5.886;2024-02-14T02:38:38;9.15;;;6.45;;
62707;SDS011;48769;51.624;5.886;2024-02-14T02:41:04;14.55;;;7.22;;
62707;SDS011;48769;51.624;5.886;2024-02-14T02:43:31;13.23;;;6.82;;
62707;SDS011;48769;51.624;5.886;2024-02-14T02:45:57;10.77;;;6.53;;
62707;SDS011;48769;51.624;5.886;2024-02-14T02:48:23;14.40;;;6.72;;
62707;SDS011;48769;51.624;5.886;2024-02-14T02:50:49;10.80;;;6.82;;
62707;SDS011;48769;51.624;5.886;2024-02-14T02:53:15;8.35;;;5.95;;
62707;SDS011;48769;51.624;5.886;2024-02-14T02:55:41;8.75;;;6.88;;
62707;SDS011;48769;51.624;5.886;2024-02-14T02:58:07;9.55;;;6.60;;
62707;SDS011;48769;51.624;5.886;2024-02-14T03:00:32;13.82;;;6.80;;
62707;SDS011;48769;51.624;5.886;2024-02-14T03:02:58;12.23;;;6.53;;
62707;SDS011;48769;51.624;5.886;2024-02-14T03:05:24;12.35;;;6.88;;
62707;SDS011;48769;51.624;5.886;2024-02-14T03:07:49;8.93;;;6.70;;
62707;SDS011;48769;51.624;5.886;2024-02-14T03:10:16;9.43;;;6.63;;
62707;SDS011;48769;51.624;5.886;2024-02-14T03:12:44;13.18;;;7.00;;
62707;SDS011;48769;51.624;5.886;2024-02-14T03:15:12;13.05;;;7.50;;
62707;SDS011;48769;51.624;5.886;2024-02-14T03:17:38;11.00;;;7.10;;
62707;SDS011;48769;51.624;5.886;2024-02-14T03:20:04;10.57;;;7.35;;
62707;SDS011;48769;51.624;5.886;2024-02-14T03:22:35;12.30;;;7.85;;
62707;SDS011;48769;51.624;5.886;2024-02-14T03:25:02;7.78;;;6.97;;
62707;SDS011;48769;51.624;5.886;2024-02-14T03:27:27;12.50;;;8.32;;
62707;SDS011;48769;51.624;5.886;2024-02-14T03:29:53;11.13;;;8.27;;
62707;SDS011;48769;51.624;5.886;2024-02-14T03:32:20;11.02;;;7.32;;
62707;SDS011;48769;51.624;5.886;2024-02-14T03:34:45;16.23;;;8.27;;
62707;SDS011;48769;51.624;5.886;2024-02-14T03:37:11;8.25;;;7.43;;
62707;SDS011;48769;51.624;5.886;2024-02-14T03:39:36;13.60;;;7.88;;
62707;SDS011;48769;51.624;5.886;2024-02-14T03:42:02;12.77;;;7.93;;
62707;SDS011;48769;51.624;5.886;2024-02-14T03:44:32;14.68;;;8.20;;
62707;SDS011;48769;51.624;5.886;2024-02-14T03:46:57;13.25;;;8.65;;
62707;SDS011;48769;51.624;5.886;2024-02-14T03:49:23;13.55;;;8.20;;
62707;SDS011;48769;51.624;5.886;2024-02-14T03:51:50;11.85;;;7.78;;
62707;SDS011;48769;51.624;5.886;2024-02-14T03:54:18;13.95;;;7.80;;
62707;SDS011;48769;51.624;5.886;2024-02-14T03:56:43;12.98;;;8.10;;
62707;SDS011;48769;51.624;5.886;2024-02-14T03:59:08;12.23;;;7.70;;
62707;SDS011;48769;51.624;5.886;2024-02-14T04:01:33;11.93;;;8.05;;
62707;SDS011;48769;51.624;5.886;2024-02-14T04:03:59;9.55;;;8.00;;
62707;SDS011;48769;51.624;5.886;2024-02-14T04:06:25;12.88;;;8.65;;
62707;SDS011;48769;51.624;5.886;2024-02-14T04:08:51;13.25;;;8.27;;
62707;SDS011;48769;51.624;5.886;2024-02-14T04:11:17;11.60;;;8.75;;
62707;SDS011;48769;51.624;5.886;2024-02-14T04:13:42;10.55;;;8.13;;
62707;SDS011;48769;51.624;5.886;2024-02-14T04:16:07;12.60;;;8.32;;
62707;SDS011;48769;51.624;5.886;2024-02-14T04:18:33;13.10;;;8.52;;
62707;SDS011;48769;51.624;5.886;2024-02-14T04:20:58;12.77;;;8.18;;
62707;SDS011;48769;51.624;5.886;2024-02-14T04:23:24;12.38;;;8.23;;
62707;SDS011;48769;51.624;5.886;2024-02-14T04:25:50;12.05;;;8.30;;
62707;SDS011;48769;51.624;5.886;2024-02-14T04:28:15;12.77;;;8.15;;
62707;SDS011;48769;51.624;5.886;2024-02-14T04:30:41;11.57;;;7.53;;
62707;SDS011;48769;51.624;5.886;2024-02-14T04:33:06;12.25;;;8.02;;
62707;SDS011;48769;51.624;5.886;2024-02-14T04:35:33;16.98;;;8.10;;
62707;SDS011;48769;51.624;5.886;2024-02-14T04:37:58;16.08;;;8.32;;
62707;SDS011;48769;51.624;5.886;2024-02-14T04:40:24;14.13;;;8.02;;
62707;SDS011;48769;51.624;5.886;2024-02-14T04:42:49;12.73;;;8.30;;
62707;SDS011;48769;51.624;5.886;2024-02-14T04:45:15;11.95;;;7.95;;
62707;SDS011;48769;51.624;5.886;2024-02-14T04:47:40;11.50;;;8.40;;
62707;SDS011;48769;51.624;5.886;2024-02-14T04:50:06;12.00;;;8.18;;
62707;SDS011;48769;51.624;5.886;2024-02-14T04:52:32;12.30;;;8.80;;
62707;SDS011;48769;51.624;5.886;2024-02-14T04:54:57;25.85;;;8.90;;
62707;SDS011;48769;51.624;5.886;2024-02-14T04:57:22;12.68;;;7.88;;
62707;SDS011;48769;51.624;5.886;2024-02-14T04:59:48;12.73;;;8.88;;
62707;SDS011;48769;51.624;5.886;2024-02-14T05:02:13;12.60;;;7.85;;
62707;SDS011;48769;51.624;5.886;2024-02-14T05:04:39;12.52;;;8.40;;
62707;SDS011;48769;51.624;5.886;2024-02-14T05:07:05;11.05;;;9.38;;
62707;SDS011;48769;51.624;5.886;2024-02-14T05:09:30;14.77;;;7.95;;
62707;SDS011;48769;51.624;5.886;2024-02-14T05:11:55;10.75;;;8.10;;
62707;SDS011;48769;51.624;5.886;2024-02-14T05:14:21;10.93;;;8.13;;
62707;SDS011;48769;51.624;5.886;2024-02-14T05:16:46;11.75;;;8.23;;
62707;SDS011;48769;51.624;5.886;2024-02-14T05:19:12;14.40;;;8.48;;
62707;SDS011;48769;51.624;5.886;2024-02-14T05:21:37;9.68;;;8.00;;
62707;SDS011;48769;51.624;5.886;2024-02-14T05:24:03;10.02;;;8.30;;
62707;SDS011;48769;51.624;5.886;2024-02-14T05:26:29;13.10;;;8.40;;
62707;SDS011;48769;51.624;5.886;2024-02-14T05:28:54;9.82;;;8.07;;
62707;SDS011;48769;51.624;5.886;2024-02-14T05:31:20;11.00;;;8.40;;
62707;SDS011;48769;51.624;5.886;2024-02-14T05:33:45;15.32;;;8.52;;
62707;SDS011;48769;51.624;5.886;2024-02-14T05:36:11;12.50;;;8.90;;
62707;SDS011;48769;51.624;5.886;2024-02-14T05:38:36;13.93;;;9.07;;
62707;SDS011;48769;51.624;5.886;2024-02-14T05:41:01;13.65;;;9.38;;
62707;SDS011;48769;51.624;5.886;2024-02-14T05:43:27;11.05;;;9.43;;
62707;SDS011;48769;51.624;5.886;2024-02-14T05:45:52;15.40;;;10.98;;
62707;SDS011;48769;51.624;5.886;2024-02-14T05:48:18;12.73;;;9.65;;
62707;SDS011;48769;51.624;5.886;2024-02-14T05:50:44;14.18;;;10.60;;
62707;SDS011;48769;51.624;5.886;2024-02-14T05:53:10;13.05;;;10.75;;
62707;SDS011;48769;51.624;5.886;2024-02-14T05:55:37;14.95;;;9.88;;
62707;SDS011;48769;51.624;5.886;2024-02-14T05:58:02;13.05;;;10.93;;
62707;SDS011;48769;51.624;5.886;2024-02-14T06:00:28;13.48;;;10.68;;
62707;SDS011;48769;51.624;5.886;2024-02-14T06:02:53;16.80;;;11.55;;
62707;SDS011;48769;51.624;5.886;2024-02-14T06:05:18;17.58;;;11.95;;
62707;SDS011;48769;51.624;5.886;2024-02-14T06:07:44;16.73;;;12.45;;
62707;SDS011;48769;51.624;5.886;2024-02-14T06:10:10;22.42;;;12.98;;
62707;SDS011;48769;51.624;5.886;2024-02-14T06:12:36;14.75;;;12.13;;
62707;SDS011;48769;51.624;5.886;2024-02-14T06:15:01;17.75;;;13.15;;
62707;SDS011;48769;51.624;5.886;2024-02-14T06:17:27;18.50;;;13.27;;
62707;SDS011;48769;51.624;5.886;2024-02-14T06:19:53;17.83;;;13.32;;
62707;SDS011;48769;51.624;5.886;2024-02-14T06:22:18;17.00;;;13.55;;
62707;SDS011;48769;51.624;5.886;2024-02-14T06:24:45;15.68;;;13.88;;
62707;SDS011;48769;51.624;5.886;2024-02-14T06:27:10;18.52;;;14.52;;
62707;SDS011;48769;51.624;5.886;2024-02-14T06:29:36;16.63;;;14.48;;
62707;SDS011;48769;51.624;5.886;2024-02-14T06:32:01;19.15;;;14.88;;
62707;SDS011;48769;51.624;5.886;2024-02-14T06:34:27;18.92;;;14.10;;
62707;SDS011;48769;51.624;5.886;2024-02-14T06:36:53;18.02;;;14.77;;
62707;SDS011;48769;51.624;5.886;2024-02-14T06:39:19;15.95;;;13.35;;
62707;SDS011;48769;51.624;5.886;2024-02-14T06:41:45;17.83;;;14.98;;
62707;SDS011;48769;51.624;5.886;2024-02-14T06:44:12;16.80;;;14.90;;
62707;SDS011;48769;51.624;5.886;2024-02-14T06:46:37;20.23;;;15.27;;
62707;SDS011;48769;51.624;5.886;2024-02-14T06:49:03;18.08;;;16.17;;
62707;SDS011;48769;51.624;5.886;2024-02-14T06:51:28;19.00;;;16.00;;
62707;SDS011;48769;51.624;5.886;2024-02-14T06:53:55;20.05;;;16.90;;
62707;SDS011;48769;51.624;5.886;2024-02-14T06:56:21;23.35;;;17.70;;
62707;SDS011;48769;51.624;5.886;2024-02-14T06:58:46;22.50;;;17.23;;
62707;SDS011;48769;51.624;5.886;2024-02-14T07:01:11;18.65;;;16.42;;
62707;SDS011;48769;51.624;5.886;2024-02-14T07:03:39;22.95;;;17.27;;
62707;SDS011;48769;51.624;5.886;2024-02-14T07:06:05;25.13;;;17.88;;
62707;SDS011;48769;51.624;5.886;2024-02-14T07:08:31;24.98;;;19.02;;
62707;SDS011;48769;51.624;5.886;2024-02-14T07:10:56;21.38;;;17.90;;
62707;SDS011;48769;51.624;5.886;2024-02-14T07:13:22;25.77;;;18.30;;
62707;SDS011;48769;51.624;5.886;2024-02-14T07:15:48;26.50;;;18.85;;
62707;SDS011;48769;51.624;5.886;2024-02-14T07:18:13;22.60;;;19.23;;
62707;SDS011;48769;51.624;5.886;2024-02-14T07:20:38;24.25;;;18.50;;
62707;SDS011;48769;51.624;5.886;2024-02-14T07:23:04;25.13;;;19.30;;
62707;SDS011;48769;51.624;5.886;2024-02-14T07:25:30;23.35;;;17.70;;
62707;SDS011;48769;51.624;5.886;2024-02-14T07:27:55;25.35;;;17.65;;
62707;SDS011;48769;51.624;5.886;2024-02-14T07:30:21;29.25;;;18.65;;
62707;SDS011;48769;51.624;5.886;2024-02-14T07:32:46;26.88;;;16.98;;
62707;SDS011;48769;51.624;5.886;2024-02-14T07:35:12;24.23;;;17.55;;
62707;SDS011;48769;51.624;5.886;2024-02-14T07:37:38;22.90;;;16.80;;
62707;SDS011;48769;51.624;5.886;2024-02-14T07:40:04;19.23;;;16.75;;
62707;SDS011;48769;51.624;5.886;2024-02-14T07:42:30;24.33;;;16.88;;
62707;SDS011;48769;51.624;5.886;2024-02-14T07:44:56;23.02;;;15.73;;
62707;SDS011;48769;51.624;5.886;2024-02-14T07:47:22;24.60;;;17.20;;
62707;SDS011;48769;51.624;5.886;2024-02-14T07:49:47;19.92;;;15.55;;
62707;SDS011;48769;51.624;5.886;2024-02-14T07:52:13;21.10;;;15.73;;
62707;SDS011;48769;51.624;5.886;2024-02-14T07:54:38;23.90;;;16.95;;
62707;SDS011;48769;51.624;5.886;2024-02-14T07:57:03;26.90;;;17.02;;
62707;SDS011;48769;51.624;5.886;2024-02-14T07:59:29;24.90;;;18.60;;
62707;SDS011;48769;51.624;5.886;2024-02-14T08:01:54;25.05;;;17.63;;
62707;SDS011;48769;51.624;5.886;2024-02-14T08:04:20;22.38;;;16.67;;
62707;SDS011;48769;51.624;5.886;2024-02-14T08:06:48;24.40;;;17.88;;
62707;SDS011;48769;51.624;5.886;2024-02-14T08:09:16;23.67;;;17.50;;
62707;SDS011;48769;51.624;5.886;2024-02-14T08:11:42;29.48;;;19.05;;
62707;SDS011;48769;51.624;5.886;2024-02-14T08:14:07;25.27;;;18.25;;
62707;SDS011;48769;51.624;5.886;2024-02-14T08:16:33;26.63;;;18.65;;
62707;SDS011;48769;51.624;5.886;2024-02-14T08:18:58;31.55;;;18.52;;
62707;SDS011;48769;51.624;5.886;2024-02-14T08:21:33;25.00;;;17.65;;
62707;SDS011;48769;51.624;5.886;2024-02-14T08:23:58;31.10;;;19.60;;
62707;SDS011;48769;51.624;5.886;2024-02-14T08:26:24;27.33;;;18.63;;
62707;SDS011;48769;51.624;5.886;2024-02-14T08:28:49;26.15;;;18.60;;
62707;SDS011;48769;51.624;5.886;2024-02-14T08:31:15;29.05;;;18.27;;
62707;SDS011;48769;51.624;5.886;2024-02-14T08:33:40;27.00;;;17.65;;
62707;SDS011;48769;51.624;5.886;2024-02-14T08:36:06;29.15;;;19.42;;
62707;SDS011;48769;51.624;5.886;2024-02-14T08:38:32;27.08;;;19.20;;
62707;SDS011;48769;51.624;5.886;2024-02-14T08:40:58;32.50;;;19.83;;
62707;SDS011;48769;51.624;5.886;2024-02-14T08:43:24;27.98;;;19.10;;
62707;SDS011;48769;51.624;5.886;2024-02-14T08:45:53;32.10;;;19.58;;
62707;SDS011;48769;51.624;5.886;2024-02-14T08:48:19;30.25;;;19.27;;
62707;SDS011;48769;51.624;5.886;2024-02-14T08:50:44;35.25;;;19.33;;
62707;SDS011;48769;51.624;5.886;2024-02-14T08:53:10;31.65;;;19.42;;
62707;SDS011;48769;51.624;5.886;2024-02-14T08:55:38;31.17;;;20.95;;
62707;SDS011;48769;51.624;5.886;2024-02-14T08:58:04;30.63;;;19.15;;
62707;SDS011;48769;51.624;5.886;2024-02-14T09:00:29;32.08;;;18.60;;
62707;SDS011;48769;51.624;5.886;2024-02-14T09:02:55;25.88;;;18.02;;
62707;SDS011;48769;51.624;5.886;2024-02-14T09:05:21;28.52;;;17.45;;
62707;SDS011;48769;51.624;5.886;2024-02-14T09:07:47;28.77;;;17.70;;
62707;SDS011;48769;51.624;5.886;2024-02-14T09:10:13;37.15;;;17.30;;
62707;SDS011;48769;51.624;5.886;2024-02-14T09:12:39;27.30;;;17.38;;
62707;SDS011;48769;51.624;5.886;2024-02-14T09:15:06;24.13;;;17.05;;
62707;SDS011;48769;51.624;5.886;2024-02-14T09:17:32;28.55;;;16.95;;
62707;SDS011;48769;51.624;5.886;2024-02-14T09:19:57;27.95;;;17.60;;
62707;SDS011;48769;51.624;5.886;2024-02-14T09:22:23;28.27;;;18.00;;
62707;SDS011;48769;51.624;5.886;2024-02-14T09:24:48;29.88;;;17.90;;
62707;SDS011;48769;51.624;5.886;2024-02-14T09:27:14;27.95;;;16.50;;
62707;SDS011;48769;51.624;5.886;2024-02-14T09:29:40;27.00;;;17.15;;
62707;SDS011;48769;51.624;5.886;2024-02-14T09:32:05;24.48;;;16.48;;
62707;SDS011;48769;51.624;5.886;2024-02-14T09:34:31;30.27;;;16.85;;
62707;SDS011;48769;51.624;5.886;2024-02-14T09:36:56;23.08;;;16.15;;
62707;SDS011;48769;51.624;5.886;2024-02-14T09:39:23;23.75;;;15.73;;
62707;SDS011;48769;51.624;5.886;2024-02-14T09:41:52;26.77;;;16.45;;
62707;SDS011;48769;51.624;5.886;2024-02-14T09:44:24;19.23;;;14.73;;
62707;SDS011;48769;51.624;5.886;2024-02-14T09:49:25;20.20;;;13.85;;
62707;SDS011;48769;51.624;5.886;2024-02-14T09:51:51;27.17;;;14.13;;
62707;SDS011;48769;51.624;5.886;2024-02-14T09:54:17;21.80;;;12.77;;
62707;SDS011;48769;51.624;5.886;2024-02-14T09:56:47;21.02;;;13.95;;
62707;SDS011;48769;51.624;5.886;2024-02-14T09:59:15;19.17;;;13.77;;
62707;SDS011;48769;51.624;5.886;2024-02-14T10:01:41;21.13;;;12.10;;
62707;SDS011;48769;51.624;5.886;2024-02-14T10:04:08;21.83;;;14.15;;
62707;SDS011;48769;51.624;5.886;2024-02-14T10:06:35;17.70;;;12.68;;
62707;SDS011;48769;51.624;5.886;2024-02-14T10:09:02;17.00;;;11.57;;
62707;SDS011;48769;51.624;5.886;2024-02-14T10:11:27;18.38;;;13.15;;
62707;SDS011;48769;51.624;5.886;2024-02-14T10:13:52;18.98;;;12.90;;
62707;SDS011;48769;51.624;5.886;2024-02-14T10:16:22;18.77;;;12.02;;
62707;SDS011;48769;51.624;5.886;2024-02-14T10:18:47;19.50;;;11.57;;
62707;SDS011;48769;51.624;5.886;2024-02-14T10:21:19;17.52;;;11.48;;
62707;SDS011;48769;51.624;5.886;2024-02-14T10:23:44;16.83;;;11.73;;
62707;SDS011;48769;51.624;5.886;2024-02-14T10:26:11;17.13;;;12.32;;
62707;SDS011;48769;51.624;5.886;2024-02-14T10:28:40;19.83;;;11.88;;
62707;SDS011;48769;51.624;5.886;2024-02-14T10:31:12;13.60;;;10.63;;
62707;SDS011;48769;51.624;5.886;2024-02-14T10:33:38;20.45;;;11.45;;
62707;SDS011;48769;51.624;5.886;2024-02-14T10:36:04;19.33;;;11.30;;
62707;SDS011;48769;51.624;5.886;2024-02-14T10:38:32;24.52;;;12.18;;
62707;SDS011;48769;51.624;5.886;2024-02-14T10:40:59;18.30;;;11.32;;
62707;SDS011;48769;51.624;5.886;2024-02-14T10:43:25;17.30;;;10.73;;
62707;SDS011;48769;51.624;5.886;2024-02-14T10:45:52;17.75;;;11.18;;
62707;SDS011;48769;51.624;5.886;2024-02-14T10:48:19;20.35;;;12.25;;
62707;SDS011;48769;51.624;5.886;2024-02-14T10:50:50;18.55;;;11.73;;
62707;SDS011;48769;51.624;5.886;2024-02-14T10:53:18;16.55;;;10.90;;
62707;SDS011;48769;51.624;5.886;2024-02-14T10:55:45;16.38;;;12.05;;
62707;SDS011;48769;51.624;5.886;2024-02-14T10:58:12;19.65;;;12.95;;
62707;SDS011;48769;51.624;5.886;2024-02-14T11:00:40;28.90;;;14.18;;
62707;SDS011;48769;51.624;5.886;2024-02-14T11:03:06;18.52;;;13.88;;
62707;SDS011;48769;51.624;5.886;2024-02-14T11:05:42;25.40;;;16.20;;
62707;SDS011;48769;51.624;5.886;2024-02-14T11:08:08;17.23;;;10.80;;
62707;SDS011;48769;51.624;5.886;2024-02-14T11:10:37;16.88;;;10.98;;
62707;SDS011;48769;51.624;5.886;2024-02-14T11:13:02;15.10;;;10.02;;
62707;SDS011;48769;51.624;5.886;2024-02-14T11:15:28;11.50;;;9.75;;
62707;SDS011;48769;51.624;5.886;2024-02-14T11:18:03;14.60;;;9.98;;
62707;SDS011;48769;51.624;5.886;2024-02-14T11:20:34;12.00;;;9.32;;
62707;SDS011;48769;51.624;5.886;2024-02-14T11:23:04;15.00;;;10.30;;
62707;SDS011;48769;51.624;5.886;2024-02-14T11:25:31;13.57;;;10.38;;
62707;SDS011;48769;51.624;5.886;2024-02-14T11:28:12;11.95;;;8.80;;
62707;SDS011;48769;51.624;5.886;2024-02-14T11:30:39;13.07;;;8.40;;
62707;SDS011;48769;51.624;5.886;2024-02-14T11:35:40;11.38;;;8.18;;
62707;SDS011;48769;51.624;5.886;2024-02-14T11:38:06;9.80;;;7.88;;
62707;SDS011;48769;51.624;5.886;2024-02-14T11:40:32;12.25;;;7.95;;
62707;SDS011;48769;51.624;5.886;2024-02-14T11:42:57;8.70;;;7.50;;
62707;SDS011;48769;51.624;5.886;2024-02-14T11:45:23;9.00;;;7.45;;
62707;SDS011;48769;51.624;5.886;2024-02-14T11:47:48;11.30;;;7.70;;
62707;SDS011;48769;51.624;5.886;2024-02-14T11:50:16;10.07;;;7.82;;
62707;SDS011;48769;51.624;5.886;2024-02-14T11:52:42;7.57;;;6.45;;
62707;SDS011;48769;51.624;5.886;2024-02-14T11:55:08;7.90;;;6.30;;
62707;SDS011;48769;51.624;5.886;2024-02-14T11:57:35;8.02;;;6.57;;
62707;SDS011;48769;51.624;5.886;2024-02-14T12:00:01;8.68;;;6.43;;
62707;SDS011;48769;51.624;5.886;2024-02-14T12:02:27;6.28;;;5.68;;
62707;SDS011;48769;51.624;5.886;2024-02-14T12:04:53;6.28;;;5.68;;
62707;SDS011;48769;51.624;5.886;2024-02-14T12:07:20;6.50;;;5.85;;
62707;SDS011;48769;51.624;5.886;2024-02-14T12:09:47;7.57;;;5.50;;
62707;SDS011;48769;51.624;5.886;2024-02-14T12:12:13;7.65;;;6.20;;
62707;SDS011;48769;51.624;5.886;2024-02-14T12:14:40;7.22;;;6.25;;
62707;SDS011;48769;51.624;5.886;2024-02-14T12:17:08;9.75;;;6.82;;
62707;SDS011;48769;51.624;5.886;2024-02-14T12:19:35;7.75;;;6.90;;
62707;SDS011;48769;51.624;5.886;2024-02-14T12:22:12;8.45;;;7.53;;
62707;SDS011;48769;51.624;5.886;2024-02-14T12:24:42;9.65;;;7.82;;
62707;SDS011;48769;51.624;5.886;2024-02-14T12:27:13;9.85;;;8.48;;
62707;SDS011;48769;51.624;5.886;2024-02-14T12:32:08;10.02;;;8.95;;
62707;SDS011;48769;51.624;5.886;2024-02-14T12:34:34;13.55;;;8.38;;
62707;SDS011;48769;51.624;5.886;2024-02-14T12:37:00;10.30;;;8.77;;
62707;SDS011;48769;51.624;5.886;2024-02-14T12:39:26;12.43;;;8.65;;
62707;SDS011;48769;51.624;5.886;2024-02-14T12:41:52;10.60;;;9.05;;
62707;SDS011;48769;51.624;5.886;2024-02-14T12:44:17;13.10;;;9.55;;
62707;SDS011;48769;51.624;5.886;2024-02-14T12:46:43;11.52;;;9.35;;
62707;SDS011;48769;51.624;5.886;2024-02-14T12:49:08;12.20;;;8.98;;
62707;SDS011;48769;51.624;5.886;2024-02-14T12:51:34;10.63;;;9.45;;
62707;SDS011;48769;51.624;5.886;2024-02-14T12:54:01;10.60;;;9.23;;
62707;SDS011;48769;51.624;5.886;2024-02-14T12:56:26;13.88;;;10.48;;
62707;SDS011;48769;51.624;5.886;2024-02-14T12:58:52;11.43;;;9.73;;
62707;SDS011;48769;51.624;5.886;2024-02-14T13:01:18;13.13;;;10.10;;
62707;SDS011;48769;51.624;5.886;2024-02-14T13:03:43;10.68;;;9.57;;
62707;SDS011;48769;51.624;5.886;2024-02-14T13:06:10;13.65;;;9.80;;
62707;SDS011;48769;51.624;5.886;2024-02-14T13:08:36;15.18;;;10.95;;
62707;SDS011;48769;51.624;5.886;2024-02-14T13:11:03;17.08;;;10.75;;
62707;SDS011;48769;51.624;5.886;2024-02-14T13:13:29;12.30;;;10.02;;
62707;SDS011;48769;51.624;5.886;2024-02-14T13:15:54;14.05;;;10.63;;
62707;SDS011;48769;51.624;5.886;2024-02-14T13:18:20;12.45;;;10.82;;
62707;SDS011;48769;51.624;5.886;2024-02-14T13:20:45;11.30;;;9.20;;
62707;SDS011;48769;51.624;5.886;2024-02-14T13:23:11;11.05;;;9.75;;
62707;SDS011;48769;51.624;5.886;2024-02-14T13:25:36;10.20;;;8.45;;
62707;SDS011;48769;51.624;5.886;2024-02-14T13:28:02;11.90;;;8.32;;
62707;SDS011;48769;51.624;5.886;2024-02-14T13:30:29;8.50;;;7.68;;
62707;SDS011;48769;51.624;5.886;2024-02-14T13:32:55;9.35;;;7.43;;
62707;SDS011;48769;51.624;5.886;2024-02-14T13:35:20;8.13;;;6.60;;
62707;SDS011;48769;51.624;5.886;2024-02-14T13:37:46;8.43;;;7.63;;
62707;SDS011;48769;51.624;5.886;2024-02-14T13:40:12;10.55;;;7.18;;
62707;SDS011;48769;51.624;5.886;2024-02-14T13:42:37;9.00;;;6.60;;
62707;SDS011;48769;51.624;5.886;2024-02-14T13:45:04;7.30;;;6.57;;
62707;SDS011;48769;51.624;5.886;2024-02-14T13:47:34;7.60;;;6.60;;
62707;SDS011;48769;51.624;5.886;2024-02-14T13:50:00;7.68;;;6.95;;
62707;SDS011;48769;51.624;5.886;2024-02-14T13:52:25;9.57;;;6.70;;
62707;SDS011;48769;51.624;5.886;2024-02-14T13:54:50;8.43;;;7.05;;
62707;SDS011;48769;51.624;5.886;2024-02-14T13:57:16;7.88;;;6.10;;
62707;SDS011;48769;51.624;5.886;2024-02-14T13:59:42;6.90;;;6.20;;
62707;SDS011;48769;51.624;5.886;2024-02-14T14:02:07;9.05;;;6.65;;
62707;SDS011;48769;51.624;5.886;2024-02-14T14:04:34;8.18;;;7.05;;
62707;SDS011;48769;51.624;5.886;2024-02-14T14:07:00;6.65;;;5.63;;
62707;SDS011;48769;51.624;5.886;2024-02-14T14:09:29;6.78;;;6.18;;
62707;SDS011;48769;51.624;5.886;2024-02-14T14:11:55;7.93;;;6.90;;
62707;SDS011;48769;51.624;5.886;2024-02-14T14:14:20;8.15;;;6.93;;
62707;SDS011;48769;51.624;5.886;2024-02-14T14:16:46;7.43;;;6.18;;
62707;SDS011;48769;51.624;5.886;2024-02-14T14:19:11;6.10;;;5.10;;
62707;SDS011;48769;51.624;5.886;2024-02-14T14:21:36;7.20;;;5.93;;
62707;SDS011;48769;51.624;5.886;2024-02-14T14:24:03;6.45;;;5.85;;
62707;SDS011;48769;51.624;5.886;2024-02-14T14:26:29;6.90;;;6.20;;
62707;SDS011;48769;51.624;5.886;2024-02-14T14:28:54;8.07;;;5.88;;
62707;SDS011;48769;51.624;5.886;2024-02-14T14:31:19;5.78;;;5.28;;
62707;SDS011;48769;51.624;5.886;2024-02-14T14:33:45;6.13;;;5.53;;